Time;durP1;ratioP1;P1;durP2;ratioP2;P2;SDS_P1;SDS_P2;PMS_P1;PMS_P2;Temp;Humidity;BMP_temperature;BMP_pressure;BME280_temperature;BME280_humidity;BME280_pressure;Samples;Min_cycle;Max_cycle;Signal;HPM_P1;HPM_P2
2022/04/15 00:00:09;;;;;;;7.35;2.63;;;;;;;8.85;48.94;100981.88;5037928;28;20083;-54
2022/04/15 00:02:41;;;;;;;6.15;3.03;;;;;;;9.32;48.23;100988.03;5038003;28;20037;-56
2022/04/15 00:08:00;;;;;;;9.68;2.90;;;;;;;9.74;47.48;100986.28;5037956;28;20071;-55
2022/04/15 00:10:31;;;;;;;13.60;2.75;;;;;;;10.13;46.98;100986.19;5037470;28;20041;-55
2022/04/15 00:13:03;;;;;;;6.65;2.95;;;;;;;10.31;46.15;100984.44;5037592;28;20060;-57
2022/04/15 00:15:35;;;;;;;9.20;2.75;;;;;;;10.10;45.14;100985.31;5037754;28;20049;-55
2022/04/15 00:18:08;;;;;;;5.45;2.72;;;;;;;9.63;46.48;100981.03;5037664;28;20336;-55
2022/04/15 00:20:38;;;;;;;10.25;2.85;;;;;;;9.14;46.10;100978.47;5037756;28;20100;-55
2022/04/15 00:23:10;;;;;;;9.32;2.90;;;;;;;8.87;46.71;100980.16;5037607;28;20071;-56
2022/04/15 00:25:40;;;;;;;7.18;2.22;;;;;;;8.80;48.41;100973.19;5037650;28;20104;-55
2022/04/15 00:28:11;;;;;;;7.55;2.40;;;;;;;8.67;47.72;100974.03;5037332;28;20332;-56
2022/04/15 00:30:42;;;;;;;7.88;2.33;;;;;;;8.57;48.65;100976.59;5030575;28;20064;-56
2022/04/15 00:33:14;;;;;;;5.03;2.30;;;;;;;8.30;48.76;100976.47;5033810;28;20096;-56
2022/04/15 00:35:45;;;;;;;7.20;2.40;;;;;;;8.08;49.44;100968.53;5037496;28;20057;-54
2022/04/15 00:38:16;;;;;;;4.20;2.30;;;;;;;7.90;49.69;100977.13;5037342;28;20041;-55
2022/04/15 00:40:47;;;;;;;8.27;2.65;;;;;;;8.03;48.79;100978.06;5037195;28;20133;-55
2022/04/15 00:43:18;;;;;;;4.20;2.30;;;;;;;8.16;47.62;100979.88;5036490;28;20033;-55
2022/04/15 00:45:49;;;;;;;6.18;2.65;;;;;;;8.28;48.10;100957.34;5033990;28;20049;-55
2022/04/15 00:48:24;;;;;;;9.82;2.58;;;;;;;8.96;47.26;100974.97;5036094;28;20061;-55
2022/04/15 00:50:54;;;;;;;6.28;2.70;;;;;;;8.88;46.39;100966.25;5034831;28;20057;-54
2022/04/15 00:53:28;;;;;;;7.00;2.30;;;;;;;9.07;46.88;100968.00;5036244;28;20213;-56
2022/04/15 00:56:01;;;;;;;4.60;2.00;;;;;;;9.13;45.13;100972.34;5036125;28;20065;-55
2022/04/15 00:58:35;;;;;;;6.85;2.10;;;;;;;8.53;44.75;100963.56;5034107;28;20072;-55
2022/04/15 01:01:05;;;;;;;12.75;2.20;;;;;;;8.61;44.76;100970.53;5035808;28;20107;-54
2022/04/15 01:03:38;;;;;;;8.40;2.20;;;;;;;8.32;46.83;100959.97;5035813;28;20045;-53
2022/04/15 01:06:17;;;;;;;7.15;2.15;;;;;;;8.48;46.17;100976.56;5035848;28;20053;-55
2022/04/15 01:08:51;;;;;;;20.42;2.55;;;;;;;7.85;46.26;100958.00;5033360;28;20049;-55
2022/04/15 01:11:26;;;;;;;17.35;2.60;;;;;;;7.63;46.75;100979.53;5035920;28;20041;-56
2022/04/15 01:14:00;;;;;;;7.57;1.73;;;;;;;6.89;48.62;100972.00;5035931;28;20109;-54
2022/04/15 01:16:34;;;;;;;4.93;1.90;;;;;;;6.95;48.81;100975.50;5033850;28;20053;-55
2022/04/15 01:19:06;;;;;;;10.00;1.88;;;;;;;7.03;47.62;100968.66;5035804;28;20061;-55
2022/04/15 01:21:39;;;;;;;4.93;2.00;;;;;;;7.27;46.84;100963.66;5032535;28;20064;-54
2022/04/15 01:24:11;;;;;;;3.45;1.58;;;;;;;7.33;46.83;100953.31;5035922;28;20229;-53
2022/04/15 01:26:42;;;;;;;3.13;1.50;;;;;;;7.69;45.97;100956.19;5039575;28;20076;-55
2022/04/15 01:29:13;;;;;;;5.32;2.03;;;;;;;8.10;45.69;100953.81;5039701;28;20041;-55
2022/04/15 01:31:43;;;;;;;7.80;1.90;;;;;;;8.43;45.18;100941.81;5039362;28;20053;-54
2022/04/15 01:34:14;;;;;;;4.88;1.60;;;;;;;8.60;43.93;100934.06;5039708;28;20148;-54
2022/04/15 01:36:45;;;;;;;5.22;1.67;;;;;;;8.82;44.16;100934.97;5039699;28;20053;-55
2022/04/15 01:39:17;;;;;;;4.75;2.13;;;;;;;9.27;45.14;100933.25;5039506;28;20076;-56
2022/04/15 01:41:48;;;;;;;9.18;2.30;;;;;;;9.71;43.33;100925.38;5036878;28;20207;-56
2022/04/15 01:44:19;;;;;;;6.10;1.77;;;;;;;10.05;43.15;100921.78;5039463;28;20343;-58
2022/04/15 01:46:49;;;;;;;3.58;1.80;;;;;;;9.96;42.30;100919.19;5039650;28;20375;-55
2022/04/15 01:49:20;;;;;;;5.47;1.70;;;;;;;10.01;41.91;100917.44;5038375;28;20116;-55
2022/04/15 01:51:51;;;;;;;15.35;2.25;;;;;;;10.00;41.20;100920.94;5037175;28;20045;-55
2022/04/15 01:54:23;;;;;;;3.17;1.80;;;;;;;9.91;39.70;100912.28;5039241;28;20343;-56
2022/04/15 01:56:53;;;;;;;4.40;1.75;;;;;;;9.96;39.32;100913.97;5039017;28;20163;-56
2022/04/15 01:59:25;;;;;;;2.78;1.60;;;;;;;9.99;38.11;100908.78;5037065;28;20041;-56
2022/04/15 02:01:56;;;;;;;7.32;1.92;;;;;;;10.12;37.72;100915.69;5040067;28;20087;-54
2022/04/15 02:04:28;;;;;;;3.95;1.30;;;;;;;9.92;38.30;100908.78;5039995;28;20053;-54
2022/04/15 02:06:59;;;;;;;3.08;1.27;;;;;;;10.11;37.66;100909.59;5040065;28;20050;-56
2022/04/15 02:09:32;;;;;;;4.65;1.63;;;;;;;9.72;37.18;100900.16;5036804;28;20041;-56
2022/04/15 02:12:02;;;;;;;3.95;1.40;;;;;;;9.39;38.02;100894.13;5038932;28;20049;-55
2022/04/15 02:14:33;;;;;;;6.43;1.58;;;;;;;9.45;38.24;100891.50;5036939;28;20112;-55
2022/04/15 02:17:04;;;;;;;5.50;1.70;;;;;;;9.65;37.78;100893.19;5038622;28;20053;-54
2022/04/15 02:19:35;;;;;;;5.57;1.60;;;;;;;9.71;37.56;100898.41;5038789;28;20100;-55
2022/04/15 02:22:06;;;;;;;4.40;1.50;;;;;;;9.22;36.11;100893.28;5038628;28;20045;-56
2022/04/15 02:24:38;;;;;;;4.28;1.60;;;;;;;9.03;38.70;100882.84;5038791;28;20090;-56
2022/04/15 02:27:12;;;;;;;2.42;1.70;;;;;;;8.92;38.62;100892.41;5035991;28;20380;-53
2022/04/15 02:29:42;;;;;;;3.75;1.63;;;;;;;9.06;39.11;100885.47;5038580;28;20034;-54
2022/04/15 02:32:13;;;;;;;5.57;1.42;;;;;;;9.18;36.27;100889.78;5036560;28;20076;-55
2022/04/15 02:34:43;;;;;;;2.60;1.40;;;;;;;8.77;36.27;100881.97;5037864;28;20121;-55
2022/04/15 02:37:14;;;;;;;3.30;1.30;;;;;;;8.66;36.44;100878.47;5038346;28;20259;-53
2022/04/15 02:39:47;;;;;;;5.53;1.58;;;;;;;8.89;36.59;100879.38;5038400;28;20054;-54
2022/04/15 02:42:17;;;;;;;3.90;1.90;;;;;;;9.28;37.08;100878.50;5038331;28;20854;-55
2022/04/15 02:44:48;;;;;;;3.05;1.35;;;;;;;9.48;36.92;100881.09;5035824;28;20220;-55
2022/04/15 02:47:20;;;;;;;3.80;1.48;;;;;;;9.76;36.24;100880.13;5038255;28;20045;-54
2022/04/15 02:49:52;;;;;;;1.83;1.30;;;;;;;9.97;35.19;100879.19;5035982;28;20084;-55
2022/04/15 02:52:22;;;;;;;2.92;1.60;;;;;;;10.32;35.53;100873.81;5038343;28;20054;-53
2022/04/15 02:54:55;;;;;;;2.72;1.45;;;;;;;10.34;35.81;100875.56;5036400;28;20081;-55
2022/04/15 02:57:26;;;;;;;3.20;1.40;;;;;;;10.45;36.25;100872.88;5019556;28;20042;-54
2022/04/15 02:59:57;;;;;;;3.92;1.40;;;;;;;10.58;35.48;100879.78;5019451;28;20117;-56
2022/04/15 03:02:28;;;;;;;1.40;1.23;;;;;;;10.26;35.21;100814.63;5019392;28;20073;-51
2022/04/15 03:04:59;;;;;;;2.35;1.20;;;;;;;10.69;34.46;100861.41;5019133;28;20064;-53
2022/04/15 03:07:29;;;;;;;4.18;1.42;;;;;;;10.77;35.06;100859.59;5019101;28;20092;-52
2022/04/15 03:10:02;;;;;;;3.47;1.40;;;;;;;10.90;35.12;100865.56;5026862;28;20058;-54
2022/04/15 03:12:36;;;;;;;5.70;1.63;;;;;;;11.08;35.39;100843.63;5044257;28;20065;-54
2022/04/15 03:15:09;;;;;;;2.42;1.48;;;;;;;11.03;32.87;100861.09;5034854;28;20057;-54
2022/04/15 03:17:39;;;;;;;3.92;1.73;;;;;;;10.72;33.86;100866.59;5030135;28;20057;-54
2022/04/15 03:20:13;;;;;;;3.78;1.80;;;;;;;10.80;35.05;100854.31;5018827;28;20065;-54
2022/04/15 03:22:45;;;;;;;2.83;1.45;;;;;;;10.87;34.48;100849.06;5039445;28;20282;-54
2022/04/15 03:25:19;;;;;;;4.18;1.30;;;;;;;10.51;33.51;100840.63;5026263;28;20061;-54
2022/04/15 03:27:49;;;;;;;1.67;0.93;;;;;;;10.71;33.97;100846.56;5018879;28;20237;-56
2022/04/15 03:30:20;;;;;;;10.38;1.58;;;;;;;10.69;32.30;100845.72;5031419;28;20052;-54
2022/04/15 03:32:52;;;;;;;5.45;1.50;;;;;;;10.83;32.31;100848.19;5039576;28;20280;-56
2022/04/15 03:35:23;;;;;;;18.23;3.03;;;;;;;10.73;31.95;100842.19;5022738;28;20113;-54
2022/04/15 03:37:54;;;;;;;6.10;1.67;;;;;;;10.40;31.46;100811.09;5018686;28;20049;-53
2022/04/15 03:40:26;;;;;;;4.35;1.30;;;;;;;10.34;30.10;100841.59;5022140;28;20317;-53
2022/04/15 03:42:57;;;;;;;11.35;2.55;;;;;;;10.21;31.32;100845.13;5051890;28;20127;-53
2022/04/15 03:45:28;;;;;;;2.85;1.55;;;;;;;10.28;31.48;100844.25;5037407;28;20057;-53
2022/04/15 03:47:59;;;;;;;6.75;2.00;;;;;;;10.03;31.00;100847.81;5038716;28;20225;-53
2022/04/15 03:50:30;;;;;;;6.50;2.72;;;;;;;9.98;29.68;100839.13;5033363;28;20073;-54
2022/04/15 03:53:00;;;;;;;2.58;1.30;;;;;;;9.79;29.80;100839.22;5027063;28;20048;-54
2022/04/15 03:55:33;;;;;;;11.20;1.92;;;;;;;9.71;29.58;100835.78;5018079;28;20054;-53
2022/04/15 03:58:04;;;;;;;4.35;2.20;;;;;;;9.69;30.61;100827.09;5028672;28;20138;-53
2022/04/15 04:00:34;;;;;;;19.77;2.20;;;;;;;9.82;30.99;100823.56;5029204;28;20084;-50
2022/04/15 04:03:05;;;;;;;17.73;1.67;;;;;;;9.80;29.98;100822.69;5037690;28;20108;-53
2022/04/15 04:05:36;;;;;;;5.72;1.45;;;;;;;9.61;30.83;100807.97;5031715;28;20406;-52
2022/04/15 04:08:08;;;;;;;2.20;1.10;;;;;;;9.65;31.08;100807.97;5022984;28;20372;-51
2022/04/15 04:10:40;;;;;;;11.85;1.35;;;;;;;9.79;30.71;100820.09;5039130;28;20248;-53
2022/04/15 04:13:11;;;;;;;2.38;1.52;;;;;;;9.62;30.85;100805.38;5037294;28;20375;-52
2022/04/15 04:15:41;;;;;;;3.00;1.20;;;;;;;9.72;30.52;100816.63;5048294;28;20229;-53
2022/04/15 04:18:14;;;;;;;1.77;1.15;;;;;;;9.72;30.07;100806.19;5051800;28;20052;-52
2022/04/15 04:20:45;;;;;;;2.95;1.02;;;;;;;9.72;29.85;100814.03;5022586;28;20290;-53
2022/04/15 04:23:15;;;;;;;4.10;1.27;;;;;;;9.71;29.46;100807.94;5037586;28;20124;-54
2022/04/15 04:25:47;;;;;;;44.78;4.28;;;;;;;9.72;28.56;100811.41;5037344;28;20053;-52
2022/04/15 04:28:18;;;;;;;2.90;1.10;;;;;;;9.69;28.95;100801.84;5037253;28;20057;-54
2022/04/15 04:30:49;;;;;;;5.95;1.60;;;;;;;9.86;30.90;100804.41;5037919;28;20098;-51
2022/04/15 04:33:20;;;;;;;1.50;1.17;;;;;;;10.00;28.08;100800.84;5036573;28;20057;-51
2022/04/15 04:35:50;;;;;;;5.78;1.20;;;;;;;9.87;27.90;100794.81;5036964;28;20360;-54
2022/04/15 04:38:21;;;;;;;2.13;1.10;;;;;;;9.93;28.31;100795.66;5037328;28;20117;-54
2022/04/15 04:40:54;;;;;;;9.43;1.60;;;;;;;9.96;28.04;100791.28;5037099;28;20387;-55
2022/04/15 04:43:25;;;;;;;5.63;0.95;;;;;;;10.04;27.99;100792.13;5037048;28;20057;-55
2022/04/15 04:45:57;;;;;;;1.65;1.00;;;;;;;9.99;27.78;100784.31;5036137;28;20295;-56
2022/04/15 04:48:27;;;;;;;18.45;2.28;;;;;;;9.99;27.91;100780.84;5026909;28;20168;-56
2022/04/15 04:50:58;;;;;;;4.07;1.00;;;;;;;9.93;28.14;100784.34;5035044;28;20063;-55
2022/04/15 04:53:29;;;;;;;5.13;1.10;;;;;;;9.76;27.38;100779.22;5040689;28;20327;-53
2022/04/15 04:56:01;;;;;;;12.75;2.22;;;;;;;9.65;27.00;100778.41;5037221;28;20052;-55
2022/04/15 04:58:32;;;;;;;2.97;1.60;;;;;;;9.71;28.63;100778.38;5037034;28;20077;-53
2022/04/15 05:01:02;;;;;;;9.32;1.55;;;;;;;9.77;27.72;100775.72;5037217;28;20057;-54
2022/04/15 05:03:33;;;;;;;5.90;1.40;;;;;;;9.74;26.73;100778.34;5037113;28;20124;-54
2022/04/15 05:06:04;;;;;;;2.75;1.00;;;;;;;9.81;26.99;100769.63;5037082;28;20054;-54
2022/04/15 05:08:35;;;;;;;6.10;2.03;;;;;;;9.89;26.54;100772.19;5037122;28;20084;-54
2022/04/15 05:11:07;;;;;;;51.90;3.53;;;;;;;9.94;26.42;100760.84;5036639;28;20049;-55
2022/04/15 05:13:38;;;;;;;1.95;1.17;;;;;;;9.61;23.09;100766.22;5036583;28;20081;-54
2022/04/15 05:16:08;;;;;;;17.83;5.30;;;;;;;9.38;24.64;100756.75;5036914;28;20093;-54
2022/04/15 05:18:39;;;;;;;14.85;1.95;;;;;;;9.35;25.32;100754.16;5036680;28;20072;-54
2022/04/15 05:21:10;;;;;;;9.20;1.92;;;;;;;9.44;26.06;100759.34;5036711;28;20045;-54
2022/04/15 05:23:41;;;;;;;2.72;1.00;;;;;;;9.44;24.73;100763.72;5036605;28;20113;-54
2022/04/15 05:26:13;;;;;;;17.70;9.93;;;;;;;9.38;24.37;100754.13;5036876;28;20124;-54
2022/04/15 05:28:44;;;;;;;2.38;1.35;;;;;;;9.11;23.29;100760.34;5036681;28;20069;-54
2022/04/15 05:31:14;;;;;;;2.55;1.55;;;;;;;8.98;22.99;100748.19;5036498;28;20285;-54
2022/04/15 05:33:45;;;;;;;3.35;0.90;;;;;;;8.82;22.89;100753.41;5036664;28;20057;-56
2022/04/15 05:36:16;;;;;;;10.23;5.20;;;;;;;8.59;22.40;100749.97;5036615;28;20368;-57
2022/04/15 05:38:47;;;;;;;4.72;0.95;;;;;;;8.40;22.50;100749.09;5036362;28;20332;-55
2022/04/15 05:41:19;;;;;;;17.80;9.27;;;;;;;8.59;25.19;100745.63;5036340;28;20117;-53
2022/04/15 05:43:50;;;;;;;34.10;4.22;;;;;;;8.87;26.40;100735.19;5036061;28;20057;-51
2022/04/15 05:46:20;;;;;;;1.67;1.02;;;;;;;9.13;25.25;100734.25;5036716;28;20065;-53
2022/04/15 05:48:51;;;;;;;22.13;1.55;;;;;;;9.34;23.89;100731.56;5036388;28;20057;-52
2022/04/15 05:51:22;;;;;;;2.13;0.95;;;;;;;9.49;24.75;100731.50;5036181;28;20053;-53
2022/04/15 05:53:53;;;;;;;11.68;5.65;;;;;;;9.47;22.62;100741.06;5035477;28;20053;-53
2022/04/15 05:56:25;;;;;;;6.20;3.08;;;;;;;9.09;21.68;100741.22;5036279;28;20056;-55
2022/04/15 05:58:55;;;;;;;4.30;1.60;;;;;;;8.89;22.67;100733.44;5036636;28;20088;-52
2022/04/15 06:01:26;;;;;;;9.18;1.10;;;;;;;8.94;24.78;100734.28;5035372;28;20297;-51
2022/04/15 06:03:57;;;;;;;8.93;1.38;;;;;;;9.09;22.73;100740.34;5036029;28;20104;-51
2022/04/15 06:06:27;;;;;;;5.85;1.27;;;;;;;8.91;22.55;100726.50;5035374;28;20049;-52
2022/04/15 06:08:58;;;;;;;3.00;0.80;;;;;;;8.57;22.77;100736.94;5036796;28;20072;-51
2022/04/15 06:11:31;;;;;;;1.13;0.82;;;;;;;8.36;21.74;100731.69;5039902;28;20050;-52
2022/04/15 06:14:03;;;;;;;4.78;1.40;;;;;;;8.50;25.55;100724.78;5040063;28;20081;-53
2022/04/15 06:16:37;;;;;;;1.58;1.00;;;;;;;8.59;22.06;100729.16;5040232;28;20228;-52
2022/04/15 06:19:08;;;;;;;5.72;1.00;;;;;;;8.57;21.65;100723.91;5040054;28;20049;-50
2022/04/15 06:21:53;;;;;;;2.15;1.00;;;;;;;8.63;22.93;100726.50;5038585;28;20053;-50
2022/04/15 06:24:24;;;;;;;2.25;0.90;;;;;;;8.61;21.77;100725.66;5030622;28;20240;-51
2022/04/15 06:26:56;;;;;;;9.25;1.20;;;;;;;8.92;26.10;100732.56;5038770;28;20049;-53
2022/04/15 06:29:27;;;;;;;3.25;1.10;;;;;;;9.18;25.37;100724.66;5038454;28;20118;-54
2022/04/15 06:31:57;;;;;;;3.13;1.10;;;;;;;9.37;26.17;100715.03;5035634;28;20362;-52
2022/04/15 06:34:28;;;;;;;39.38;2.10;;;;;;;9.29;24.41;100712.47;5038301;28;20336;-52
2022/04/15 06:36:58;;;;;;;21.90;1.65;;;;;;;9.31;25.06;100718.56;5038587;28;20410;-53
2022/04/15 06:39:35;;;;;;;4.18;1.10;;;;;;;9.57;27.49;100723.63;5038717;28;20069;-52
2022/04/15 06:42:08;;;;;;;13.48;1.20;;;;;;;9.86;27.08;100726.09;5038571;28;20049;-53
2022/04/15 06:44:39;;;;;;;25.00;1.67;;;;;;;10.05;26.29;100715.53;5038501;28;20061;-52
2022/04/15 06:47:09;;;;;;;7.97;1.40;;;;;;;9.91;26.28;100729.53;5038248;28;20053;-50
2022/04/15 06:49:40;;;;;;;1.35;0.80;;;;;;;9.88;25.07;100734.78;5035672;28;20060;-50
2022/04/15 06:52:11;;;;;;;35.70;2.53;;;;;;;9.74;24.45;100736.59;5038169;28;20059;-53
2022/04/15 06:54:42;;;;;;;5.28;0.80;;;;;;;9.43;22.08;100721.06;5037951;28;20113;-53
2022/04/15 06:57:15;;;;;;;5.35;1.15;;;;;;;9.57;26.24;100728.00;5037062;28;20077;-52
2022/04/15 06:59:45;;;;;;;2.28;0.90;;;;;;;9.53;23.93;100731.47;5031857;28;20054;-50
2022/04/15 07:02:16;;;;;;;1.05;0.95;;;;;;;9.47;23.46;100721.94;5035284;28;20383;-51
2022/04/15 07:04:47;;;;;;;1.80;1.17;;;;;;;9.42;24.55;100727.19;5035050;28;20540;-50
2022/04/15 07:07:17;;;;;;;4.05;0.95;;;;;;;9.57;25.50;100733.22;5035180;28;20121;-53
2022/04/15 07:09:49;;;;;;;8.02;2.67;;;;;;;9.60;24.69;100721.00;5035244;28;20072;-53
2022/04/15 07:12:22;;;;;;;11.55;6.22;;;;;;;9.60;24.45;100727.97;5034689;28;20369;-53
2022/04/15 07:14:52;;;;;;;22.15;8.20;;;;;;;9.69;25.00;100727.94;5035270;28;20423;-50
2022/04/15 07:17:23;;;;;;;8.73;2.80;;;;;;;9.70;24.41;100734.88;5034708;28;20054;-53
2022/04/15 07:19:54;;;;;;;27.40;5.10;;;;;;;9.55;23.71;100729.75;5034865;28;20068;-51
2022/04/15 07:22:25;;;;;;;26.08;4.10;;;;;;;9.53;24.04;100726.25;5034224;28;20881;-52
2022/04/15 07:24:56;;;;;;;13.88;1.65;;;;;;;9.70;23.21;100724.44;5034091;28;20050;-50
2022/04/15 07:27:28;;;;;;;8.30;1.90;;;;;;;9.69;22.91;100718.34;5034433;28;20120;-50
2022/04/15 07:29:59;;;;;;;7.18;4.47;;;;;;;9.65;23.82;100716.63;5034837;28;20052;-54
2022/04/15 07:32:29;;;;;;;4.25;2.92;;;;;;;9.50;21.58;100712.34;5034694;28;20049;-52
2022/04/15 07:35:02;;;;;;;1.95;1.05;;;;;;;9.29;20.83;100712.47;5034460;28;20041;-53
2022/04/15 07:37:33;;;;;;;15.32;1.60;;;;;;;9.19;21.65;100705.56;5034149;28;20056;-50
2022/04/15 07:40:04;;;;;;;12.85;6.57;;;;;;;8.61;22.79;100624.06;5034620;28;20088;-52
2022/04/15 07:42:36;;;;;;;4.25;1.90;;;;;;;9.13;23.17;100702.97;5034359;28;20060;-52
2022/04/15 07:45:08;;;;;;;2.83;1.17;;;;;;;9.16;23.51;100700.31;5034684;28;20361;-54
2022/04/15 07:47:38;;;;;;;3.25;1.08;;;;;;;9.22;23.56;100705.53;5034814;28;20054;-53
2022/04/15 07:50:23;;;;;;;9.45;1.58;;;;;;;9.14;23.98;100699.50;5034579;28;20076;-54
2022/04/15 07:52:57;;;;;;;23.17;4.18;;;;;;;9.20;25.79;100712.50;5034656;28;20125;-51
2022/04/15 07:55:29;;;;;;;2.92;1.38;;;;;;;9.06;24.35;100710.81;5034510;28;20124;-53
2022/04/15 07:58:01;;;;;;;3.83;1.67;;;;;;;8.95;25.37;100712.56;5034470;28;20240;-52
2022/04/15 08:00:34;;;;;;;5.05;1.00;;;;;;;8.90;25.00;100713.44;5033230;28;20061;-52
2022/04/15 08:03:05;;;;;;;21.45;2.53;;;;;;;8.79;24.75;100700.47;5034386;28;20053;-53
2022/04/15 08:05:35;;;;;;;4.25;1.60;;;;;;;8.74;25.04;100708.28;5034045;28;20057;-52
2022/04/15 08:08:07;;;;;;;11.52;1.40;;;;;;;8.76;25.64;100705.66;5034149;28;20108;-51
2022/04/15 08:10:40;;;;;;;4.28;1.55;;;;;;;8.74;25.68;100699.59;5034348;28;20087;-53
2022/04/15 08:13:12;;;;;;;18.90;1.73;;;;;;;8.65;24.84;100692.66;5034288;28;20345;-53
2022/04/15 08:15:43;;;;;;;1.25;0.80;;;;;;;8.58;26.35;100697.00;5034097;28;20112;-52
2022/04/15 08:18:14;;;;;;;8.57;1.58;;;;;;;7.90;25.23;100596.38;5033837;28;20056;-53
2022/04/15 08:20:45;;;;;;;18.65;1.45;;;;;;;8.29;24.81;100693.53;5034048;28;20327;-53
2022/04/15 08:23:16;;;;;;;2.40;0.90;;;;;;;8.00;24.68;100668.34;5033873;28;20076;-53
2022/04/15 08:25:47;;;;;;;39.47;12.43;;;;;;;8.03;25.85;100691.78;5033413;28;20061;-54
2022/04/15 08:28:25;;;;;;;18.83;4.53;;;;;;;7.86;25.22;100680.47;5033795;28;20060;-51
2022/04/15 08:30:56;;;;;;;9.52;2.83;;;;;;;7.78;25.15;100691.72;5033470;28;20059;-53
2022/04/15 08:33:26;;;;;;;7.45;2.42;;;;;;;7.69;26.25;100691.72;5033473;28;20049;-51
2022/04/15 08:35:57;;;;;;;13.75;2.40;;;;;;;7.66;26.36;100702.13;5033598;28;20116;-52
2022/04/15 08:38:28;;;;;;;9.65;2.03;;;;;;;7.55;26.70;100693.41;5033786;28;20255;-53
2022/04/15 08:41:00;;;;;;;3.72;1.48;;;;;;;7.49;27.13;100699.47;5033688;28;20057;-53
2022/04/15 08:43:32;;;;;;;4.55;1.35;;;;;;;7.39;27.23;100691.63;5033580;28;20053;-53
2022/04/15 08:46:05;;;;;;;26.58;2.83;;;;;;;7.21;27.28;100692.44;5033304;28;20049;-54
2022/04/15 08:48:36;;;;;;;41.65;2.63;;;;;;;7.07;26.74;100701.03;5033730;28;20112;-54
2022/04/15 08:51:08;;;;;;;10.57;1.73;;;;;;;6.72;27.67;100708.63;5033565;28;20370;-53
2022/04/15 08:53:40;;;;;;;5.75;1.35;;;;;;;6.36;29.78;100717.88;5033403;28;20061;-54
2022/04/15 08:56:10;;;;;;;9.27;1.50;;;;;;;6.05;32.67;100704.66;5033729;28;20053;-52
2022/04/15 08:58:43;;;;;;;9.30;1.60;;;;;;;5.52;37.98;100660.88;5033543;28;20378;-53
2022/04/15 09:01:14;;;;;;;9.60;2.72;;;;;;;5.52;38.70;100717.91;5033268;28;20045;-54
2022/04/15 09:03:45;;;;;;;7.95;3.00;;;;;;;5.04;40.39;100671.53;5033273;28;20068;-53
2022/04/15 09:06:17;;;;;;;9.43;2.50;;;;;;;5.00;42.36;100719.84;5032901;28;20099;-54
2022/04/15 09:09:07;;;;;;;10.70;2.08;;;;;;;4.71;43.94;100717.69;5033131;28;20042;-55
2022/04/15 09:11:40;;;;;;;20.73;2.20;;;;;;;4.41;45.41;100714.66;5033185;28;20081;-52
2022/04/15 09:14:12;;;;;;;14.15;1.98;;;;;;;4.24;46.32;100723.03;5033431;28;20105;-53
2022/04/15 09:16:45;;;;;;;16.73;2.30;;;;;;;4.05;47.10;100726.13;5033048;28;20077;-53
2022/04/15 09:19:17;;;;;;;17.17;2.30;;;;;;;3.99;48.27;100726.00;5032981;28;20053;-53
2022/04/15 09:21:53;;;;;;;22.25;4.32;;;;;;;3.86;48.45;100725.78;5028780;28;20332;-53
2022/04/15 09:24:32;;;;;;;76.10;7.63;;;;;;;3.80;48.80;100736.03;5022468;28;20134;-51
2022/04/15 09:27:05;;;;;;;30.95;4.00;;;;;;;3.70;48.20;100736.69;5023057;28;20121;-52
2022/04/15 09:29:38;;;;;;;22.58;4.80;;;;;;;3.42;48.51;100712.91;5023316;28;20125;-54
2022/04/15 09:32:11;;;;;;;39.15;22.55;;;;;;;3.33;48.12;100738.53;5023091;28;20080;-53
2022/04/15 09:34:55;;;;;;;46.17;32.88;;;;;;;2.50;49.31;100638.69;5023215;28;20064;-53
2022/04/15 09:37:27;;;;;;;31.88;21.88;;;;;;;2.96;50.27;100742.03;5023190;28;20353;-53
2022/04/15 09:40:09;;;;;;;9.60;4.95;;;;;;;2.95;50.73;100748.94;5023135;28;20049;-53
2022/04/15 09:42:47;;;;;;;6.40;3.55;;;;;;;2.67;51.25;100713.88;5023203;28;20067;-54
2022/04/15 09:45:21;;;;;;;4.47;2.10;;;;;;;2.79;51.19;100749.41;5025926;28;20054;-52
2022/04/15 09:47:57;;;;;;;11.10;4.88;;;;;;;2.73;51.73;100759.59;5027145;28;20108;-54
2022/04/15 09:50:29;;;;;;;8.57;4.88;;;;;;;2.62;52.37;100768.78;5027024;28;20056;-53
2022/04/15 09:53:10;;;;;;;7.15;3.78;;;;;;;2.58;52.91;100776.44;5027003;28;20117;-54
2022/04/15 09:55:42;;;;;;;27.88;10.38;;;;;;;2.45;53.41;100778.72;5027141;28;20304;-53
2022/04/15 09:58:15;;;;;;;15.80;7.03;;;;;;;2.31;54.85;100786.09;5027157;28;20062;-53
2022/04/15 10:00:49;;;;;;;5.72;3.85;;;;;;;2.02;55.61;100752.72;5026381;28;20056;-53
2022/04/15 10:03:21;;;;;;;6.57;3.90;;;;;;;2.23;55.43;100790.19;5026684;28;20084;-53
2022/04/15 10:05:54;;;;;;;10.20;4.30;;;;;;;1.86;56.11;100760.84;5026165;28;20070;-53
2022/04/15 10:08:27;;;;;;;6.45;3.92;;;;;;;1.96;57.07;100798.91;5026355;28;20228;-52
2022/04/15 10:10:58;;;;;;;8.00;4.80;;;;;;;1.82;57.52;100801.13;5026721;28;20076;-52
2022/04/15 10:13:29;;;;;;;7.47;4.25;;;;;;;1.73;57.63;100800.88;5026817;28;20077;-53
2022/04/15 10:16:02;;;;;;;7.60;4.72;;;;;;;1.63;58.31;100804.88;5026746;28;20061;-53
2022/04/15 10:18:33;;;;;;;6.90;4.40;;;;;;;1.57;58.65;100809.84;5026399;28;20053;-52
2022/04/15 10:21:05;;;;;;;9.40;5.40;;;;;;;1.49;59.27;100812.19;5026310;28;20148;-51
2022/04/15 10:23:36;;;;;;;17.45;5.95;;;;;;;1.39;59.55;100809.31;5026589;28;20077;-51
2022/04/15 10:26:07;;;;;;;17.25;8.80;;;;;;;1.28;60.39;100812.47;5026086;28;20120;-54
2022/04/15 10:28:44;;;;;;;29.90;14.10;;;;;;;1.16;60.93;100818.94;5025834;28;20064;-54
2022/04/15 10:31:17;;;;;;;38.60;17.20;;;;;;;0.70;61.33;100779.78;5026982;28;20061;-55
2022/04/15 10:33:55;;;;;;;21.23;13.13;;;;;;;0.79;61.79;100821.22;5026004;28;20085;-53
2022/04/15 10:36:26;;;;;;;16.10;9.15;;;;;;;0.60;62.73;100827.47;5026125;28;20120;-54
2022/04/15 10:39:20;;;;;;;27.70;10.95;;;;;;;0.43;63.66;100832.06;5026194;28;20061;-54
2022/04/15 10:42:18;;;;;;;14.15;6.85;;;;;;;0.29;64.25;100828.13;5026086;28;20045;-55
2022/04/15 10:44:49;;;;;;;8.52;3.70;;;;;;;0.21;64.81;100824.44;5025687;28;20092;-54
2022/04/15 10:47:30;;;;;;;9.02;4.40;;;;;;;0.14;65.29;100837.88;5025816;28;20061;-54
2022/04/15 10:50:03;;;;;;;8.43;3.35;;;;;;;0.05;65.45;100848.72;5025629;28;20049;-54
2022/04/15 10:52:35;;;;;;;14.02;3.90;;;;;;;-0.10;65.89;100833.66;5025931;28;20087;-54
2022/04/15 10:55:08;;;;;;;6.65;2.70;;;;;;;-0.43;66.61;100798.19;5024925;28;20053;-54
2022/04/15 10:57:40;;;;;;;7.40;2.72;;;;;;;-0.23;66.96;100841.69;5025750;28;20224;-53
2022/04/15 11:03:23;;;;;;;6.60;3.17;;;;;;;-0.38;68.11;100830.88;5025500;28;20065;-53
2022/04/15 11:05:56;;;;;;;14.55;4.70;;;;;;;-0.53;68.23;100811.50;5007589;28;20093;-52
2022/04/15 11:08:47;;;;;;;13.15;5.70;;;;;;;-0.45;68.19;100820.41;5025036;28;20091;-56
2022/04/15 11:11:18;;;;;;;13.70;6.40;;;;;;;-0.18;67.86;100854.72;5025185;28;20053;-56
2022/04/15 11:14:03;;;;;;;33.78;21.67;;;;;;;-0.20;67.84;100858.91;5025060;28;20052;-52
2022/04/15 11:16:48;;;;;;;40.67;24.88;;;;;;;-0.23;67.99;100867.38;5025214;28;20054;-54
2022/04/15 11:19:25;;;;;;;9.70;5.93;;;;;;;-0.32;68.46;100856.78;5024977;28;20061;-55
2022/04/15 11:21:56;;;;;;;12.43;4.38;;;;;;;-0.45;68.77;100861.47;5025149;28;20976;-53
2022/04/15 11:24:28;;;;;;;48.65;24.42;;;;;;;-0.58;69.54;100859.22;5025082;28;20068;-55
2022/04/15 11:27:03;;;;;;;16.00;8.73;;;;;;;-0.72;69.54;100850.16;5024269;28;20111;-55
2022/04/15 11:29:34;;;;;;;8.20;4.43;;;;;;;-0.71;70.14;100862.16;5023959;28;20080;-55
2022/04/15 11:32:08;;;;;;;6.10;4.15;;;;;;;-1.01;70.40;100826.78;5024090;28;20366;-54
2022/04/15 11:34:41;;;;;;;7.40;3.65;;;;;;;-1.11;70.54;100814.41;5024020;28;20067;-55
2022/04/15 11:37:12;;;;;;;6.40;3.55;;;;;;;-0.88;70.80;100859.78;5024056;28;20054;-53
2022/04/15 11:39:46;;;;;;;7.35;3.15;;;;;;;-0.95;71.11;100862.97;5024388;28;20073;-55
2022/04/15 11:42:17;;;;;;;6.70;3.30;;;;;;;-1.03;71.59;100859.19;5023592;28;20284;-55
2022/04/15 11:44:48;;;;;;;5.13;2.90;;;;;;;-1.07;71.92;100862.47;5023831;28;20339;-56
2022/04/15 11:47:20;;;;;;;5.97;2.33;;;;;;;-1.17;72.04;100844.97;5023865;28;20279;-57
2022/04/15 11:49:53;;;;;;;3.15;2.50;;;;;;;-1.13;72.15;100851.94;5023950;28;20073;-54
2022/04/15 11:52:26;;;;;;;4.65;2.70;;;;;;;-1.24;72.04;100828.44;5023743;28;20052;-56
2022/04/15 11:54:58;;;;;;;6.90;4.20;;;;;;;-1.09;71.74;100838.44;5023486;28;20081;-56
2022/04/15 11:57:30;;;;;;;6.60;4.15;;;;;;;-1.12;71.90;100838.31;5023773;28;20053;-56